Denver, Iowa
Current Conditions -  °F | °C
As of 7:54 AM on Friday 24 Oct 2014 (Local Time) from KALO Reporting Station
Moderate Fog Moderate Fog  
Wind Chill: 44°   Ceiling: 200
Heat Index: 47°   Visibility: 0.25mi
Dew Point: 46°   Wind: 6mph
Humidity: 97%   Direction: 130°SE
Pressure: 29.99"   Gusts: NA
Location:  42.67°N, 92.34°W
Report Text: KALO 241254Z AUTO 13005KT 1/4SM R12/1400V2400FT FG OVC002 08/08 A2999 RMK AO2 SLP158 T00830078
Loading
Personal Weather Stations






























Interactive Weather Map
Tropical Storm Tracking
New forecast layout! Learn more

10-Day Weather Forecast

Advertisements
Track Severe Weather on mobile